createdAt,value
2022-12-12T00:01:38.846Z,20.88
2022-12-12T00:04:06.731Z,18.52
2022-12-12T00:06:34.433Z,20.13
2022-12-12T00:09:03.634Z,19.98
2022-12-12T00:11:32.052Z,19.00
2022-12-12T00:14:00.708Z,22.20
2022-12-12T00:16:29.707Z,20.77
2022-12-12T00:18:57.401Z,21.02
2022-12-12T00:21:28.957Z,19.63
2022-12-12T00:23:57.527Z,19.38
2022-12-12T00:26:31.198Z,16.55
2022-12-12T00:31:27.512Z,18.52
2022-12-12T00:33:55.593Z,15.93
2022-12-12T00:36:26.960Z,16.38
2022-12-12T00:38:55.795Z,16.30
2022-12-12T00:41:23.653Z,15.73
2022-12-12T00:43:51.989Z,15.88
2022-12-12T00:46:25.031Z,14.75
2022-12-12T00:48:59.318Z,14.30
2022-12-12T00:51:28.862Z,14.57
2022-12-12T00:53:58.197Z,13.05
2022-12-12T00:56:26.602Z,12.05
2022-12-12T00:58:54.682Z,12.00
2022-12-12T01:01:26.332Z,9.43
2022-12-12T01:03:55.016Z,8.90
2022-12-12T01:06:23.310Z,9.15
2022-12-12T01:08:51.238Z,9.73
2022-12-12T01:11:20.004Z,10.27
2022-12-12T01:13:49.483Z,10.00
2022-12-12T01:16:17.552Z,9.73
2022-12-12T01:18:45.726Z,10.43
2022-12-12T01:21:16.542Z,10.00
2022-12-12T01:23:44.966Z,9.48
2022-12-12T01:26:15.798Z,7.68
2022-12-12T01:28:44.142Z,7.88
2022-12-12T01:31:12.058Z,8.73
2022-12-12T01:33:40.464Z,7.45
2022-12-12T01:36:08.279Z,8.45
2022-12-12T01:38:36.606Z,8.02
2022-12-12T01:41:04.844Z,8.43
2022-12-12T01:43:33.036Z,8.27
2022-12-12T01:46:02.668Z,9.57
2022-12-12T01:48:41.845Z,9.25
2022-12-12T01:51:16.863Z,7.05
2022-12-12T01:53:46.225Z,7.15
2022-12-12T01:56:17.794Z,6.65
2022-12-12T01:58:48.488Z,9.25
2022-12-12T02:01:17.126Z,8.05
2022-12-12T02:03:45.670Z,7.50
2022-12-12T02:06:23.140Z,7.57
2022-12-12T02:08:53.996Z,8.18
2022-12-12T02:11:21.794Z,9.90
2022-12-12T02:13:51.239Z,9.10
2022-12-12T02:17:14.637Z,7.45
2022-12-12T02:19:42.634Z,8.10
2022-12-12T02:22:15.974Z,8.00
2022-12-12T02:24:56.519Z,7.93
2022-12-12T02:28:01.711Z,9.25
2022-12-12T02:30:58.193Z,9.23
2022-12-12T02:33:36.103Z,9.88
2022-12-12T02:36:27.742Z,8.27
2022-12-12T02:39:13.505Z,10.85
2022-12-12T02:41:44.216Z,11.27
2022-12-12T02:44:25.627Z,11.13
2022-12-12T02:47:04.252Z,8.70
2022-12-12T02:49:36.391Z,11.00
2022-12-12T02:52:05.753Z,10.35
2022-12-12T02:54:34.914Z,12.13
2022-12-12T02:57:04.519Z,10.50
2022-12-12T02:59:41.871Z,10.60
2022-12-12T03:02:16.158Z,10.88
2022-12-12T03:05:27.746Z,11.02
2022-12-12T03:08:23.734Z,11.27
2022-12-12T03:11:07.299Z,10.82
2022-12-12T03:13:53.186Z,11.75
2022-12-12T03:16:29.112Z,9.88
2022-12-12T03:18:58.208Z,10.65
2022-12-12T03:21:42.445Z,11.13
2022-12-12T03:24:22.193Z,10.13
2022-12-12T03:26:58.931Z,10.27
2022-12-12T03:29:37.091Z,12.25
2022-12-12T03:32:09.977Z,11.70
2022-12-12T03:34:42.181Z,15.00
2022-12-12T03:37:12.054Z,15.13
2022-12-12T03:39:52.867Z,16.25
2022-12-12T03:42:38.863Z,16.50
2022-12-12T03:45:14.639Z,18.88
2022-12-12T03:47:59.391Z,18.60
2022-12-12T03:50:34.100Z,20.10
2022-12-12T03:53:18.048Z,17.88
2022-12-12T03:58:51.962Z,18.13
2022-12-12T04:01:40.942Z,19.20
2022-12-12T04:04:08.571Z,23.45
2022-12-12T04:06:42.526Z,23.92
2022-12-12T04:09:35.689Z,25.52
2022-12-12T04:12:40.374Z,27.80
2022-12-12T04:15:19.860Z,28.75
2022-12-12T04:17:59.461Z,28.02
2022-12-12T04:20:58.544Z,27.80
2022-12-12T04:23:35.084Z,26.52
2022-12-12T04:26:39.326Z,26.45
2022-12-12T04:29:19.328Z,25.80
2022-12-12T04:32:18.266Z,26.88
2022-12-12T04:34:54.183Z,27.88
2022-12-12T04:37:27.523Z,28.67
2022-12-12T04:40:01.696Z,26.90
2022-12-12T04:42:36.157Z,25.88
2022-12-12T04:45:10.924Z,24.00
2022-12-12T04:47:42.913Z,25.77
2022-12-12T04:50:12.110Z,25.38
2022-12-12T04:52:42.674Z,25.00
2022-12-12T04:55:15.631Z,24.05
2022-12-12T04:57:48.463Z,22.83
2022-12-12T05:00:16.701Z,22.10
2022-12-12T05:03:20.251Z,21.05
2022-12-12T05:06:07.960Z,22.38
2022-12-12T05:08:43.523Z,24.35
2022-12-12T05:11:12.799Z,23.05
2022-12-12T05:13:42.973Z,23.08
2022-12-12T05:16:18.392Z,23.40
2022-12-12T05:18:46.462Z,20.55
2022-12-12T05:21:15.188Z,22.17
2022-12-12T05:23:42.841Z,21.27
2022-12-12T05:26:22.985Z,25.08
2022-12-12T05:28:53.295Z,22.40
2022-12-12T05:31:21.447Z,23.40
2022-12-12T05:33:49.599Z,22.38
2022-12-12T05:36:18.010Z,22.13
2022-12-12T05:38:46.175Z,21.85
2022-12-12T05:41:15.921Z,23.40
2022-12-12T05:43:43.622Z,23.17
2022-12-12T05:46:11.337Z,21.63
2022-12-12T05:48:39.284Z,22.27
2022-12-12T05:51:07.182Z,22.55
2022-12-12T05:53:42.229Z,19.73
2022-12-12T05:56:12.679Z,20.35
2022-12-12T05:58:40.938Z,22.38
2022-12-12T06:01:08.974Z,21.10
2022-12-12T06:03:36.815Z,21.05
2022-12-12T06:06:05.560Z,22.33
2022-12-12T06:08:34.484Z,21.15
2022-12-12T06:11:06.682Z,21.42
2022-12-12T06:13:35.038Z,20.10
2022-12-12T06:16:15.462Z,20.25
2022-12-12T06:18:44.006Z,19.70
2022-12-12T06:21:12.975Z,19.35
2022-12-12T06:23:42.138Z,16.23
2022-12-12T06:26:12.275Z,18.40
2022-12-12T06:28:42.122Z,16.90
2022-12-12T06:31:12.013Z,16.83
2022-12-12T06:33:42.532Z,18.15
2022-12-12T06:36:11.853Z,17.42
2022-12-12T06:38:40.067Z,16.88
2022-12-12T06:41:10.116Z,18.20
2022-12-12T06:43:38.113Z,19.63
2022-12-12T06:46:08.561Z,21.85
2022-12-12T06:48:36.834Z,18.67
2022-12-12T06:51:09.254Z,18.67
2022-12-12T06:53:37.410Z,19.10
2022-12-12T06:56:19.997Z,20.20
2022-12-12T06:58:49.001Z,19.40
2022-12-12T07:01:19.832Z,18.65
2022-12-12T07:03:49.611Z,18.67
2022-12-12T07:06:19.131Z,19.65
2022-12-12T07:08:48.381Z,20.60
2022-12-12T07:11:25.964Z,19.98
2022-12-12T07:13:55.979Z,19.48
2022-12-12T07:16:24.399Z,21.60
2022-12-12T07:18:52.577Z,18.65
2022-12-12T07:21:20.701Z,19.10
2022-12-12T07:23:48.369Z,19.33
2022-12-12T07:26:20.041Z,18.33
2022-12-12T07:28:48.963Z,19.52
2022-12-12T07:31:19.270Z,19.75
2022-12-12T07:33:47.414Z,19.88
2022-12-12T07:36:17.159Z,21.55
2022-12-12T07:38:45.582Z,19.42
2022-12-12T07:41:17.074Z,21.00
2022-12-12T07:43:51.103Z,19.40
2022-12-12T07:46:21.977Z,20.17
2022-12-12T07:48:50.258Z,19.45
2022-12-12T07:51:19.299Z,19.50
2022-12-12T07:53:47.385Z,20.20
2022-12-12T07:56:16.868Z,18.00
2022-12-12T07:58:45.611Z,17.60
2022-12-12T08:01:16.536Z,17.70
2022-12-12T08:03:45.683Z,18.63
2022-12-12T08:06:14.491Z,17.00
2022-12-12T08:08:42.558Z,18.00
2022-12-12T08:11:12.753Z,16.60
2022-12-12T08:13:41.308Z,16.05
2022-12-12T08:16:24.545Z,15.25
2022-12-12T08:18:59.258Z,16.88
2022-12-12T08:21:27.492Z,17.35
2022-12-12T08:23:57.427Z,14.75
2022-12-12T08:26:29.026Z,17.13
2022-12-12T08:28:58.144Z,16.08
2022-12-12T08:31:26.736Z,18.02
2022-12-12T08:33:54.901Z,20.55
2022-12-12T08:36:34.900Z,19.15
2022-12-12T08:39:08.603Z,18.08
2022-12-12T08:41:38.378Z,15.68
2022-12-12T08:44:07.315Z,15.02
2022-12-12T08:46:35.320Z,17.33
2022-12-12T08:49:03.107Z,17.00
2022-12-12T08:51:30.881Z,16.02
2022-12-12T08:53:58.456Z,14.88
2022-12-12T08:56:26.129Z,16.45
2022-12-12T08:58:53.747Z,15.57
2022-12-12T09:01:24.705Z,14.68
2022-12-12T09:03:54.445Z,13.75
2022-12-12T09:06:23.107Z,14.80
2022-12-12T09:08:51.307Z,15.30
2022-12-12T09:11:19.380Z,14.05
2022-12-12T09:13:47.539Z,14.75
2022-12-12T09:16:16.421Z,16.45
2022-12-12T09:18:48.511Z,15.20
2022-12-12T09:21:18.155Z,13.57
2022-12-12T09:23:48.238Z,15.98
2022-12-12T09:26:18.024Z,16.65
2022-12-12T09:28:46.181Z,19.63
2022-12-12T09:31:14.199Z,16.98
2022-12-12T09:33:43.333Z,17.95
2022-12-12T09:36:15.106Z,18.73
2022-12-12T09:38:43.192Z,20.48
2022-12-12T09:41:11.042Z,17.48
2022-12-12T09:43:48.142Z,16.80
2022-12-12T09:46:37.706Z,18.40
2022-12-12T09:49:24.710Z,19.42
2022-12-12T09:51:53.462Z,17.77
2022-12-12T09:54:23.715Z,17.70
2022-12-12T09:57:20.942Z,17.15
2022-12-12T10:00:04.775Z,16.65
2022-12-12T10:02:36.624Z,15.80
2022-12-12T10:05:22.370Z,16.20
2022-12-12T10:08:19.657Z,15.88
2022-12-12T10:10:58.401Z,16.73
2022-12-12T10:13:28.555Z,16.30
2022-12-12T10:16:10.291Z,15.82
2022-12-12T10:18:48.787Z,15.13
2022-12-12T10:21:23.019Z,14.38
2022-12-12T10:24:02.262Z,15.48
2022-12-12T10:26:31.114Z,13.93
2022-12-12T10:29:12.427Z,13.50
2022-12-12T10:31:49.069Z,15.63
2022-12-12T10:34:44.270Z,17.88
2022-12-12T10:37:38.530Z,18.92
2022-12-12T10:40:21.003Z,18.48
2022-12-12T10:43:34.603Z,17.20
2022-12-12T10:46:29.526Z,19.45
2022-12-12T10:48:57.937Z,18.40
2022-12-12T10:51:29.058Z,19.25
2022-12-12T10:53:57.096Z,19.70
2022-12-12T10:56:30.998Z,17.80
2022-12-12T11:04:22.169Z,17.45
2022-12-12T11:06:52.653Z,17.10
2022-12-12T11:09:26.316Z,17.92
2022-12-12T11:12:09.718Z,17.67
2022-12-12T11:14:40.044Z,16.80
2022-12-12T11:17:29.107Z,16.40
2022-12-12T11:19:59.706Z,17.70
2022-12-12T11:22:31.984Z,16.67
2022-12-12T11:25:00.608Z,16.80
2022-12-12T11:27:31.372Z,18.45
2022-12-12T11:30:02.111Z,16.33
2022-12-12T11:32:38.062Z,14.32
2022-12-12T11:35:22.231Z,14.23
2022-12-12T11:37:53.633Z,14.63
2022-12-12T11:40:33.212Z,17.40
2022-12-12T11:43:28.018Z,20.27
2022-12-12T11:46:00.135Z,19.52
2022-12-12T11:48:55.189Z,21.67
2022-12-12T11:51:41.129Z,22.15
2022-12-12T11:54:13.344Z,21.90
2022-12-12T11:56:58.267Z,23.92
2022-12-12T11:59:41.066Z,21.17
2022-12-12T12:02:44.209Z,20.73
2022-12-12T12:05:17.668Z,22.42
2022-12-12T12:08:18.157Z,21.20
2022-12-12T12:10:57.027Z,21.23
2022-12-12T12:13:25.667Z,22.98
2022-12-12T12:16:06.828Z,22.70
2022-12-12T12:18:55.234Z,23.30
2022-12-12T12:21:34.592Z,21.27
2022-12-12T12:24:46.728Z,20.73
2022-12-12T12:27:27.963Z,20.40
2022-12-12T12:30:06.290Z,20.00
2022-12-12T12:32:44.061Z,21.35
2022-12-12T12:35:26.511Z,20.80
2022-12-12T12:38:03.040Z,20.98
2022-12-12T12:40:46.173Z,20.45
2022-12-12T12:43:26.606Z,18.98
2022-12-12T12:46:02.407Z,22.23
2022-12-12T12:48:33.303Z,20.10
2022-12-12T12:51:19.138Z,19.60
2022-12-12T12:53:51.883Z,20.52
2022-12-12T12:56:26.506Z,23.30
2022-12-12T12:58:59.995Z,22.77
2022-12-12T13:01:42.524Z,23.15
2022-12-12T13:04:10.964Z,24.15
2022-12-12T13:06:41.166Z,23.95
2022-12-12T13:09:28.928Z,22.38
2022-12-12T13:12:13.258Z,22.80
2022-12-12T13:14:52.110Z,21.42
2022-12-12T13:17:28.167Z,21.58
2022-12-12T13:19:57.736Z,21.15
2022-12-12T13:22:43.839Z,22.95
2022-12-12T13:25:26.200Z,24.33
2022-12-12T13:27:58.043Z,21.98
2022-12-12T13:30:42.997Z,21.95
2022-12-12T13:33:26.974Z,21.48
2022-12-12T13:38:30.007Z,20.75
2022-12-12T13:41:00.757Z,21.48
2022-12-12T13:43:29.605Z,20.70
2022-12-12T13:45:57.361Z,20.20
2022-12-12T13:48:29.156Z,21.52
2022-12-12T13:51:27.893Z,20.45
2022-12-12T13:54:12.609Z,22.92
2022-12-12T13:56:44.025Z,22.30
2022-12-12T13:59:24.074Z,20.90
2022-12-12T14:02:01.155Z,19.75
2022-12-12T14:04:35.447Z,20.73
2022-12-12T14:07:21.907Z,21.00
2022-12-12T14:09:53.438Z,20.40
2022-12-12T14:12:31.011Z,22.15
2022-12-12T14:15:21.699Z,22.08
2022-12-12T14:18:20.210Z,21.65
2022-12-12T14:21:05.758Z,23.70
2022-12-12T14:23:43.631Z,24.98
2022-12-12T14:26:23.486Z,23.27
2022-12-12T14:29:18.868Z,22.10
2022-12-12T14:32:11.118Z,23.55
2022-12-12T14:35:03.132Z,23.63
2022-12-12T14:37:47.037Z,23.88
2022-12-12T14:40:52.997Z,23.55
2022-12-12T14:43:35.210Z,26.23
2022-12-12T14:46:04.408Z,24.48
2022-12-12T14:48:34.982Z,27.15
2022-12-12T14:51:16.037Z,28.15
2022-12-12T14:53:52.397Z,26.27
2022-12-12T14:56:26.423Z,27.88
2022-12-12T14:59:33.428Z,28.65
2022-12-12T15:02:20.953Z,26.60
2022-12-12T15:04:55.135Z,25.70
2022-12-12T15:07:38.290Z,27.60
2022-12-12T15:10:26.053Z,29.70
2022-12-12T15:12:53.982Z,27.63
2022-12-12T15:15:27.787Z,28.05
2022-12-12T15:20:28.700Z,27.10
2022-12-12T15:23:08.863Z,28.42
2022-12-12T15:25:46.823Z,25.45
2022-12-12T15:28:20.988Z,25.55
2022-12-12T15:30:53.700Z,28.73
2022-12-12T15:33:24.138Z,29.10
2022-12-12T15:36:01.803Z,25.42
2022-12-12T15:38:32.179Z,26.58
2022-12-12T15:41:09.480Z,29.48
2022-12-12T15:43:41.506Z,29.77
2022-12-12T15:46:14.615Z,29.98
2022-12-12T15:48:46.104Z,28.58
2022-12-12T15:51:21.063Z,28.70
2022-12-12T15:53:53.984Z,30.50
2022-12-12T15:56:21.534Z,28.98
2022-12-12T15:58:52.161Z,31.30
2022-12-12T16:01:25.573Z,27.90
2022-12-12T16:04:03.884Z,27.10
2022-12-12T16:06:36.490Z,28.17
2022-12-12T16:09:07.772Z,29.13
2022-12-12T16:11:43.356Z,27.13
2022-12-12T16:14:42.102Z,29.52
2022-12-12T16:17:23.641Z,29.98
2022-12-12T16:20:01.547Z,31.73
2022-12-12T16:22:49.354Z,31.45
2022-12-12T16:25:26.258Z,32.60
2022-12-12T16:28:06.010Z,40.55
2022-12-12T16:30:34.480Z,39.20
2022-12-12T16:33:34.179Z,44.03
2022-12-12T16:36:13.794Z,43.67
2022-12-12T16:38:42.222Z,40.53
2022-12-12T16:41:16.840Z,41.13
2022-12-12T16:43:45.130Z,30.88
2022-12-12T16:46:22.204Z,33.60
2022-12-12T16:48:50.329Z,30.10
2022-12-12T16:51:25.999Z,34.22
2022-12-12T16:53:55.387Z,32.78
2022-12-12T16:56:23.117Z,32.75
2022-12-12T16:58:53.360Z,33.85
2022-12-12T17:01:21.425Z,35.97
2022-12-12T17:03:49.781Z,37.97
2022-12-12T17:06:17.479Z,36.00
2022-12-12T17:08:45.297Z,38.95
2022-12-12T17:11:13.389Z,36.70
2022-12-12T17:13:48.027Z,39.33
2022-12-12T17:16:16.337Z,39.45
2022-12-12T17:18:43.993Z,36.47
2022-12-12T17:21:11.991Z,36.63
2022-12-12T17:23:40.444Z,36.95
2022-12-12T17:26:08.314Z,35.85
2022-12-12T17:28:35.922Z,38.35
2022-12-12T17:31:09.145Z,36.72
2022-12-12T17:33:49.501Z,39.58
2022-12-12T17:36:19.740Z,37.45
2022-12-12T17:38:48.784Z,36.10
2022-12-12T17:41:16.520Z,39.45
2022-12-12T17:43:44.579Z,38.70
2022-12-12T17:46:14.931Z,38.80
2022-12-12T17:48:49.005Z,40.28
2022-12-12T17:51:20.978Z,37.78
2022-12-12T17:53:51.099Z,38.67
2022-12-12T17:56:22.008Z,39.65
2022-12-12T17:58:50.212Z,40.88
2022-12-12T18:01:23.311Z,38.83
2022-12-12T18:03:52.032Z,38.78
2022-12-12T18:06:22.115Z,40.33
2022-12-12T18:08:50.741Z,38.03
2022-12-12T18:11:24.603Z,39.78
2022-12-12T18:13:53.962Z,41.60
2022-12-12T18:16:23.787Z,42.22
2022-12-12T18:18:52.174Z,42.15
2022-12-12T18:24:14.152Z,42.78
2022-12-12T18:26:41.825Z,39.47
2022-12-12T18:29:12.949Z,42.08
2022-12-12T18:31:41.230Z,39.05
2022-12-12T18:34:08.949Z,41.60
2022-12-12T18:36:39.607Z,41.53
2022-12-12T18:39:07.676Z,39.65
2022-12-12T18:41:39.157Z,42.15
2022-12-12T18:44:11.569Z,42.97
2022-12-12T18:46:43.024Z,40.33
2022-12-12T18:49:15.384Z,41.67
2022-12-12T18:51:45.508Z,42.00
2022-12-12T18:54:16.005Z,38.00
2022-12-12T18:56:45.925Z,33.15
2022-12-12T18:59:15.563Z,33.65
2022-12-12T19:01:43.751Z,31.77
2022-12-12T19:04:20.880Z,34.20
2022-12-12T19:06:52.249Z,31.88
2022-12-12T19:09:20.939Z,31.73
2022-12-12T19:11:50.095Z,29.83
2022-12-12T19:14:17.835Z,29.88
2022-12-12T19:16:46.108Z,33.25
2022-12-12T19:19:14.707Z,29.83
2022-12-12T19:21:42.850Z,31.92
2022-12-12T19:24:12.434Z,31.90
2022-12-12T19:26:43.919Z,34.22
2022-12-12T19:29:15.849Z,34.58
2022-12-12T19:31:44.034Z,34.58
2022-12-12T19:34:13.827Z,33.47
2022-12-12T19:36:42.062Z,37.88
2022-12-12T19:39:12.049Z,35.42
2022-12-12T19:41:40.566Z,33.47
2022-12-12T19:44:12.660Z,34.22
2022-12-12T19:46:43.705Z,36.38
2022-12-12T19:49:13.638Z,34.72
2022-12-12T19:51:44.783Z,39.63
2022-12-12T19:54:18.509Z,36.90
2022-12-12T19:59:15.774Z,38.10
2022-12-12T20:01:44.060Z,39.92
2022-12-12T20:04:21.800Z,46.08
2022-12-12T20:06:52.967Z,39.33
2022-12-12T20:09:26.709Z,37.17
2022-12-12T20:14:25.043Z,32.80
2022-12-12T20:16:54.000Z,34.47
2022-12-12T20:19:23.494Z,32.35
2022-12-12T20:22:02.221Z,32.25
2022-12-12T20:24:32.794Z,34.08
2022-12-12T20:27:03.498Z,32.70
2022-12-12T20:29:32.964Z,29.13
2022-12-12T20:32:01.428Z,30.88
2022-12-12T20:34:30.267Z,30.90
2022-12-12T20:36:58.793Z,33.65
2022-12-12T20:39:26.968Z,32.35
2022-12-12T20:41:55.129Z,31.23
2022-12-12T20:44:25.410Z,27.45
2022-12-12T20:46:53.301Z,31.02
2022-12-12T20:49:23.953Z,30.45
2022-12-12T20:51:56.996Z,30.55
2022-12-12T20:54:28.327Z,28.00
2022-12-12T20:56:57.717Z,30.08
2022-12-12T20:59:26.101Z,31.38
2022-12-12T21:01:54.397Z,30.85
2022-12-12T21:04:22.675Z,31.67
2022-12-12T21:06:51.875Z,30.92
2022-12-12T21:09:24.850Z,34.17
2022-12-12T21:11:55.012Z,37.65
2022-12-12T21:14:22.784Z,38.50
2022-12-12T21:16:51.234Z,41.67
2022-12-12T21:19:21.016Z,38.47
2022-12-12T21:21:49.412Z,38.17
2022-12-12T21:24:18.769Z,37.58
2022-12-12T21:26:46.844Z,38.08
2022-12-12T21:29:15.511Z,36.67
2022-12-12T21:31:50.227Z,39.83
2022-12-12T21:34:21.607Z,39.22
2022-12-12T21:36:53.602Z,39.33
2022-12-12T21:39:27.432Z,35.20
2022-12-12T21:41:56.365Z,38.22
2022-12-12T21:44:24.896Z,37.05
2022-12-12T21:46:53.655Z,33.60
2022-12-12T21:49:27.810Z,33.45
2022-12-12T21:51:57.794Z,37.72
2022-12-12T21:54:29.033Z,35.60
2022-12-12T21:56:58.606Z,36.25
2022-12-12T21:59:26.784Z,33.67
2022-12-12T22:01:57.701Z,33.90
2022-12-12T22:04:26.218Z,32.72
2022-12-12T22:06:53.825Z,32.47
2022-12-12T22:09:21.541Z,30.65
2022-12-12T22:11:52.108Z,32.83
2022-12-12T22:14:21.665Z,34.75
2022-12-12T22:16:49.700Z,34.72
2022-12-12T22:19:18.552Z,33.90
2022-12-12T22:21:48.526Z,31.85
2022-12-12T22:24:17.656Z,27.50
2022-12-12T22:26:48.215Z,31.83
2022-12-12T22:29:20.273Z,28.50
2022-12-12T22:31:50.305Z,30.20
2022-12-12T22:34:21.728Z,27.83
2022-12-12T22:36:49.687Z,26.15
2022-12-12T22:39:21.848Z,25.67
2022-12-12T22:41:50.805Z,26.92
2022-12-12T22:44:20.839Z,28.02
2022-12-12T22:46:50.666Z,25.50
2022-12-12T22:49:22.578Z,27.25
2022-12-12T22:51:50.333Z,28.20
2022-12-12T22:54:18.304Z,26.90
2022-12-12T22:56:46.688Z,26.83
2022-12-12T22:59:15.399Z,25.48
2022-12-12T23:01:43.398Z,22.40
2022-12-12T23:04:15.561Z,23.55
2022-12-12T23:06:44.014Z,23.90
2022-12-12T23:09:20.689Z,24.33
2022-12-12T23:11:50.528Z,26.88
2022-12-12T23:14:21.891Z,24.88
2022-12-12T23:16:51.072Z,31.50
2022-12-12T23:19:22.001Z,26.92
2022-12-12T23:21:49.959Z,28.08
2022-12-12T23:24:18.066Z,25.60
2022-12-12T23:26:51.071Z,27.75
2022-12-12T23:29:20.325Z,28.60
2022-12-12T23:31:48.958Z,25.02
2022-12-12T23:34:20.760Z,28.65
2022-12-12T23:36:49.911Z,26.08
2022-12-12T23:39:17.919Z,27.92
2022-12-12T23:41:45.897Z,27.45
2022-12-12T23:44:15.748Z,25.08
2022-12-12T23:46:44.041Z,24.73
2022-12-12T23:49:18.783Z,23.02
2022-12-12T23:51:58.624Z,22.27
2022-12-12T23:54:32.365Z,22.35
2022-12-12T23:57:00.202Z,25.83
2022-12-12T23:59:29.331Z,24.83
